»·PEaware :: UAL1399 KEGE-KTEX

UAL1399 :: KEGE-KTEX

FLIGHT INFORMATION

Flight Status: Arrived
Operator:
United Airlines
More flights by this operator :: More flights under this callsign
Pilot: David C. (16084)
Aircraft: DEHAVILLAND DASH 8 400
(DH8D)
More flights by this aircraft type
Origin: KEGE Eagle Co Regl
United States
Destination: KTEX Telluride Regl
United States
More flights between these airports :: More routes between these airports
Route: BEVVR1 SPRKT JNC ETL
File this flight plan on PilotEdge
Remarks:
Altitude:
(Current/Filed)
18,000ft
Speed:
(Current/Filed)
321kts
Departed: 12-Sep-23 11:18 AM
Arrived: 12-Sep-23 11:54 AM
Distance/Time
Traveled:
111nm/0:36
Distance/Time
To Go:
Arrived

Flight Plot

Page will automatically refresh every two minutes.

Flight plan parsing failed; only flown route is shown


Map Options




Map Legend


Flown Route
Filed Route
Departure Airport
Arrival Airport
Navaid (VOR, NDB)
Fix

Horizontal Profiles

Position Reports

Time Latitude Longitude Heading Altitude Ground
Speed
12-Sep-23 10:46 39.640980 -106.912162 172 6552ft 0kts
12-Sep-23 10:47 39.640980 -106.912162 172 6552ft 0kts
12-Sep-23 10:48 39.640980 -106.912162 172 6552ft 0kts
12-Sep-23 10:49 39.640980 -106.912162 172 6552ft 0kts
12-Sep-23 10:50 39.640980 -106.912162 172 6552ft 0kts
12-Sep-23 10:51 39.640980 -106.912162 172 6552ft 0kts
12-Sep-23 10:52 39.640980 -106.912162 172 6552ft 0kts
12-Sep-23 10:53 39.640980 -106.912162 172 6552ft 0kts
12-Sep-23 10:54 39.640980 -106.912162 172 6552ft 0kts
12-Sep-23 10:55 39.640980 -106.912162 172 6552ft 0kts
12-Sep-23 10:56 39.640980 -106.912162 172 6552ft 0kts
12-Sep-23 10:57 39.640980 -106.912162 172 6552ft 0kts
12-Sep-23 10:58 39.640980 -106.912162 172 6552ft 0kts
12-Sep-23 10:59 39.640980 -106.912162 172 6552ft 0kts
12-Sep-23 11:00 39.640980 -106.912162 172 6552ft 0kts
12-Sep-23 11:01 39.640980 -106.912162 172 6552ft 0kts
12-Sep-23 11:02 39.640980 -106.912162 172 6552ft 0kts
12-Sep-23 11:03 39.640980 -106.912162 172 6552ft 0kts
12-Sep-23 11:04 39.640980 -106.912162 172 6552ft 0kts
12-Sep-23 11:05 39.640980 -106.912162 172 6552ft 0kts
12-Sep-23 11:06 39.640980 -106.912162 172 6552ft 0kts
12-Sep-23 11:07 39.641082 -106.912194 148 6552ft 2kts
12-Sep-23 11:08 39.641315 -106.912873 106 6552ft 0kts
12-Sep-23 11:09 39.641316 -106.912877 106 6552ft 0kts
12-Sep-23 11:10 39.641316 -106.912877 106 6552ft 0kts
12-Sep-23 11:11 39.641316 -106.912877 106 6552ft 0kts
12-Sep-23 11:12 39.641316 -106.912877 106 6552ft 0kts
12-Sep-23 11:13 39.641902 -106.912187 38 6552ft 14kts
12-Sep-23 11:14 39.642859 -106.905146 81 6552ft 14kts
12-Sep-23 11:15 39.643462 -106.900354 54 6552ft 0kts
12-Sep-23 11:16 39.644203 -106.900233 321 6552ft 9kts
12-Sep-23 11:17 39.642353 -106.919609 261 6579ft 155kts
12-Sep-23 11:18 39.610331 -106.961072 214 8409ft 186kts
12-Sep-23 11:19 39.580417 -107.013422 271 10376ft 203kts
12-Sep-23 11:20 39.597679 -107.083088 316 12331ft 226kts
12-Sep-23 11:21 39.655401 -107.106003 9 13872ft 242kts
12-Sep-23 11:22 39.722072 -107.093145 340 15150ft 243kts
12-Sep-23 11:23 39.767121 -107.156446 304 16302ft 244kts
12-Sep-23 11:24 39.805903 -107.229617 303 17418ft 248kts
12-Sep-23 11:25 39.832514 -107.309961 263 18263ft 257kts
12-Sep-23 11:26 39.772362 -107.359672 198 18313ft 295kts
12-Sep-23 11:27 39.691778 -107.398072 203 18306ft 319kts
12-Sep-23 11:28 39.608095 -107.442267 204 18304ft 332kts
12-Sep-23 11:29 39.521934 -107.488101 204 18303ft 338kts
12-Sep-23 11:30 39.434474 -107.534553 204 18302ft 342kts
12-Sep-23 11:31 39.346393 -107.581213 204 18302ft 344kts
12-Sep-23 11:32 39.257776 -107.628029 204 18302ft 344kts
12-Sep-23 11:33 39.169074 -107.674763 203 18302ft 345kts
12-Sep-23 11:34 39.080447 -107.721325 203 18302ft 345kts
12-Sep-23 11:35 38.991648 -107.767865 203 18288ft 345kts
12-Sep-23 11:36 38.903012 -107.814166 203 18223ft 344kts
12-Sep-23 11:37 38.813973 -107.860554 203 18210ft 340kts
12-Sep-23 11:38 38.726601 -107.905967 203 18210ft 338kts
12-Sep-23 11:39 38.639737 -107.951001 203 18210ft 337kts
12-Sep-23 11:40 38.553396 -107.996906 207 18211ft 336kts
12-Sep-23 11:41 38.476749 -108.062939 220 18252ft 333kts
12-Sep-23 11:42 38.403841 -108.136097 218 18314ft 333kts
12-Sep-23 11:43 38.329946 -108.207947 218 18387ft 335kts
12-Sep-23 11:44 38.255599 -108.279774 218 18412ft 337kts
12-Sep-23 11:45 38.172122 -108.321910 167 17025ft 336kts
12-Sep-23 11:46 38.093443 -108.284820 160 16074ft 265kts
12-Sep-23 11:47 38.038315 -108.246732 119 15245ft 213kts
12-Sep-23 11:48 38.013144 -108.172685 110 13831ft 245kts
12-Sep-23 11:49 37.992573 -108.095273 104 12322ft 217kts
12-Sep-23 11:50 37.979715 -108.031795 105 11113ft 176kts
12-Sep-23 11:51 37.967967 -107.973558 107 10471ft 173kts
12-Sep-23 11:52 37.955655 -107.917380 104 9083ft 162kts
12-Sep-23 11:53 37.951858 -107.896769 15 9080ft 7kts
12-Sep-23 11:54 37.953162 -107.900248 285 9080ft 13kts
12-Sep-23 11:55 37.954469 -107.902437 13 9080ft 0kts

Navigation Log

Ident Type
Flight plan parsing failed, navigation log unavailable